Data for 07/30/2016

Time Sea-Level Adjusted Pressure Absolute Pressure Temperature Relative Humidity Dew Point   
(mb) (inHg) (mb) (inHg) (C) (F) (%) (C) (F)
00:05 1017 30.03 846 24.98 21.1 70 39 6.8 44.3
00:10 1017 30.03 846 24.98 21.1 69.9 39 6.8 44.3
00:15 1017 30.03 846 24.98 21 69.8 40 6.9 44.4
00:20 1017 30.03 846 24.98 20.9 69.6 40 6.9 44.4
00:25 1017 30.03 846 24.98 20.8 69.5 40 7 44.5
00:30 1017 30.03 846 24.98 20.7 69.3 40 6.9 44.5
00:35 1017 30.03 846 24.98 20.7 69.3 41 7 44.6
00:40 1017 30.03 846 24.98 20.7 69.2 41 7.1 44.8
00:45 1017 30.03 846 24.98 20.6 69 41 7.1 44.7
00:50 1017 30.03 846 24.98 20.5 68.9 41 7 44.7
00:55 1017 30.03 846 24.98 20.5 68.9 42 7.2 45
01:00 1017 30.03 846 24.98 20.4 68.7 42 7.2 44.9
01:05 1017 30.03 846 24.98 20.4 68.7 42 7.1 44.8
01:10 1017 30.03 846 24.98 20.4 68.6 42 7.2 45
01:15 1017 30.03 846 24.98 20.3 68.6 42 7.2 45
01:20 1017 30.03 846 24.98 20.3 68.5 42 7.2 45
01:25 1017 30.03 846 24.98 20.3 68.6 42 7.2 44.9
01:30 1017 30.03 846 24.98 20.3 68.6 42 7.3 45.2
01:35 1017 30.03 846 24.98 20.3 68.5 42 7.2 45
01:40 1017 30.03 846 24.98 20.2 68.4 43 7.3 45.2
01:45 1017 30.03 846 24.98 20.1 68.2 43 7.3 45.1
01:50 1017 30.03 846 24.98 20.1 68.1 43 7.4 45.3
01:55 1017 30.03 846 24.98 20 68.1 43 7.3 45.2
02:00 1017 30.03 846 24.98 20 68.1 44 7.4 45.4
02:05 1017 30.03 846 24.98 20 68 44 7.4 45.3
02:10 1016 30 846 24.98 20 68 43 7.3 45.1
02:15 1016 30 846 24.98 20 68.1 43 7.3 45.2
02:20 1016 30 846 24.98 20 68.1 43 7.3 45.2
02:25 1016 30 845 24.95 20 68.1 43 7.3 45.2
02:30 1016 30 846 24.98 20 68.1 43 7.3 45.1
02:35 1016 30 846 24.98 20.1 68.1 43 7.3 45.1
02:40 1016 30 846 24.98 20.1 68.1 43 7.3 45.1
02:45 1016 30 846 24.98 20 68 43 7.4 45.3
02:50 1016 30 846 24.98 20 67.9 44 7.4 45.4
02:55 1016 30 846 24.98 19.8 67.6 45 7.5 45.6
03:00 1016 30 846 24.98 19.6 67.3 45 7.6 45.6
03:05 1016 30 846 24.98 19.4 67 46 7.5 45.5
03:10 1016 30 846 24.98 19.3 66.7 46 7.6 45.7
03:15 1016 30 846 24.98 19.2 66.5 47 7.6 45.7
03:20 1016 30 846 24.98 19.1 66.4 47 7.6 45.6
03:25 1016 30 846 24.98 19.1 66.3 47 7.6 45.7
03:30 1016 30 846 24.98 18.9 66.1 47 7.6 45.7
03:35 1016 30 846 24.98 18.9 66 47 7.6 45.7
03:40 1016 30 846 24.98 18.9 66 47 7.6 45.6
03:45 1016 30 845 24.95 18.9 66.1 47 7.5 45.6
03:50 1016 30 845 24.95 18.9 66 47 7.6 45.6
03:55 1016 30 846 24.98 18.9 66.1 47 7.5 45.5
04:00 1016 30 846 24.98 19 66.2 47 7.5 45.5
04:05 1016 30 846 24.98 19 66.2 47 7.7 45.8
04:10 1016 30 845 24.95 18.9 66 47 7.6 45.6
04:15 1016 30 845 24.95 18.9 66 47 7.5 45.5
04:20 1016 30 845 24.95 18.8 65.8 48 7.7 45.8
04:25 1016 30 845 24.95 18.6 65.6 50 8 46.4
04:30 1016 30 845 24.95 18 64.4 49 7.2 45
04:35 1016 30 845 24.95 17 62.7 49 6.2 43.2
04:40 1016 30 846 24.98 17 62.6 49 6.2 43.2
04:45 1016 30 846 24.98 16.9 62.4 50 6.4 43.5
04:50 1016 30 846 24.98 17 62.5 50 6.5 43.7
04:55 1016 30 845 24.95 16.8 62.2 50 6.3 43.3
05:00 1016 30 845 24.95 16.8 62.2 50 6.6 43.8
05:05 1016 30 845 24.95 16.7 62 52 6.9 44.4
05:10 1016 30 845 24.95 16.5 61.7 51 6.5 43.8
05:15 1016 30 845 24.95 16.6 61.9 50 6.4 43.4
05:20 1016 30 846 24.98 16.3 61.3 51 6.3 43.3
05:25 1016 30 846 24.98 16.2 61.1 53 6.6 43.8
05:30 1016 30 846 24.98 16.3 61.3 51 6.4 43.5
05:35 1016 30 846 24.98 16 60.7 54 6.6 44
05:40 1016 30 846 24.98 15.8 60.4 54 6.5 43.6
05:45 1017 30.03 846 24.98 15.8 60.5 53 6.5 43.6
05:50 1017 30.03 846 24.98 15.8 60.5 53 6.5 43.6
05:55 1017 30.03 846 24.98 16.1 61 52 6.4 43.5
06:00 1017 30.03 846 24.98 16.2 61.2 53 6.6 43.9
06:05 1017 30.03 846 24.98 16.4 61.5 52 6.6 44
06:10 1017 30.03 846 24.98 16.6 61.9 52 6.7 44
06:15 1017 30.03 846 24.98 16.7 62.1 51 6.7 44.1
06:20 1017 30.03 846 24.98 16.9 62.4 51 6.9 44.4
06:25 1017 30.03 846 24.98 16.9 62.4 51 6.8 44.3
06:30 1017 30.03 846 24.98 17.3 63.1 50 7 44.6
06:35 1017 30.03 846 24.98 17.7 63.9 51 7.6 45.6
06:40 1017 30.03 846 24.98 18.1 64.6 49 7.2 45
06:45 1017 30.03 846 24.98 18.5 65.3 48 7.3 45.1
06:50 1017 30.03 846 24.98 18.8 65.8 47 7.3 45.1
06:55 1017 30.03 846 24.98 19.1 66.3 44 6.8 44.3
07:00 1017 30.03 846 24.98 19.7 67.4 44 7.1 44.9
07:05 1017 30.03 846 24.98 19.6 67.3 45 7.6 45.7
07:10 1017 30.03 846 24.98 19.5 67.1 49 8.5 47.4
07:15 1017 30.03 846 24.98 19.5 67.1 47 8 46.3
07:20 1017 30.03 846 24.98 19.4 67 44 7.1 44.8
07:25 1017 30.03 846 24.98 19.5 67.2 44 7.1 44.7
07:30 1017 30.03 846 24.98 20.1 68.1 44 7.5 45.5
07:35 1017 30.03 846 24.98 20.5 68.9 40 6.6 43.9
07:40 1017 30.03 846 24.98 20.4 68.8 39 6.1 42.9
07:45 1017 30.03 846 24.98 20.7 69.3 38 6 42.7
07:50 1017 30.03 846 24.98 21 69.7 36 5.3 41.6
07:55 1017 30.03 846 24.98 21.5 70.7 34 5.1 41.2
08:00 1017 30.03 846 24.98 22.5 72.5 33 5.8 42.4
08:05 1017 30.03 846 24.98 23 73.5 32 5.6 42.1
08:10 1017 30.03 846 24.98 23.2 73.8 33 6.3 43.3
08:15 1017 30.03 846 24.98 23.6 74.5 32 6.2 43.1
08:20 1017 30.03 846 24.98 23.6 74.5 33 6.6 43.8
08:25 1017 30.03 846 24.98 23.6 74.5 33 6.8 44.3
08:30 1017 30.03 846 24.98 23.3 73.9 35 7 44.6
08:35 1017 30.03 846 24.98 23.5 74.2 33 6.3 43.4
08:40 1017 30.03 846 24.98 24.2 75.6 32 6.8 44.3
08:45 1017 30.03 846 24.98 24.2 75.6 32 6.7 44.1
08:50 1017 30.03 846 24.98 23.8 74.9 33 6.9 44.4
08:55 1017 30.03 846 24.98 23.7 74.7 32 6.2 43.1
09:00 1017 30.03 846 24.98 23.8 74.8 33 6.9 44.5
09:05 1017 30.03 846 24.98 24.6 76.3 31 6.5 43.7
09:10 1017 30.03 846 24.98 25.5 77.9 30 7 44.6
09:15 1017 30.03 846 24.98 25.9 78.7 30 7.1 44.8
09:20 1017 30.03 846 24.98 26.2 79.2 29 7.2 44.9
09:25 1017 30.03 846 24.98 26.1 79 29 7.2 44.9
09:30 1017 30.03 846 24.98 25.9 78.7 28 6.3 43.4
09:35 1016 30 846 24.98 26.4 79.5 29 7.4 45.3
09:40 1016 30 846 24.98 25.3 77.5 31 7.2 45
09:45 1016 30 846 24.98 25.5 77.9 30 6.7 44.1
09:50 1016 30 846 24.98 25.9 78.6 29 6.6 43.8
09:55 1016 30 846 24.98 26.5 79.7 28 6.9 44.5
10:00 1016 30 846 24.98 26.1 79.1 28 6.6 43.9
10:05 1016 30 846 24.98 26.8 80.3 28 6.9 44.4
10:10 1016 30 846 24.98 26.7 80.1 28 6.9 44.4
10:15 1016 30 846 24.98 25.7 78.2 30 7 44.7
10:20 1016 30 846 24.98 25.8 78.5 27 5.7 42.3
10:25 1016 30 845 24.95 27.1 80.8 25 5.7 42.2
10:30 1016 30 845 24.95 26.7 80.1 27 6.7 44
10:35 1016 30 845 24.95 26.9 80.3 26 5.8 42.4
10:40 1016 30 845 24.95 27.3 81.1 26 6.1 43
10:45 1016 30 845 24.95 28.2 82.7 25 6.3 43.4
10:50 1016 30 845 24.95 29 84.2 21 5 41
10:55 1016 30 845 24.95 29.6 85.3 22 6 42.8
11:00 1016 30 845 24.95 29.2 84.5 21 5 40.9
11:05 1016 30 845 24.95 28.8 83.9 22 5.3 41.6
11:10 1016 30 845 24.95 28.9 84 23 6 42.7
11:15 1016 30 845 24.95 28.6 83.5 22 5 41
11:20 1016 30 845 24.95 28.9 84 22 5.3 41.5
11:25 1016 30 845 24.95 29.1 84.3 21 5.2 41.3
11:30 1016 30 845 24.95 29.3 84.7 21 5.1 41.1
11:35 1016 30 845 24.95 29.4 84.8 21 5 41.1
11:40 1016 30 845 24.95 29.6 85.2 20 4.8 40.6
11:45 1016 30 845 24.95 29.7 85.4 19 4.3 39.7
11:50 1016 30 845 24.95 29.9 85.8 19 4.1 39.4
11:55 1016 30 845 24.95 29.3 84.7 21 5 41
12:00 1016 30 845 24.95 29.3 84.7 20 4.6 40.3
12:05 1016 30 845 24.95 29.2 84.5 21 4.8 40.7
12:10 1015 29.97 845 24.95 29 84.1 21 4.7 40.5
12:15 1015 29.97 845 24.95 29.3 84.7 20 4.3 39.7
12:20 1015 29.97 845 24.95 29.9 85.7 19 4.2 39.5
12:25 1015 29.97 844 24.92 30.8 87.4 17 3.6 38.5
12:30 1015 29.97 844 24.92 31 87.8 17 3.6 38.5
12:35 1015 29.97 844 24.92 30.7 87.2 17 3.5 38.3
12:40 1015 29.97 844 24.92 29.7 85.4 18 3.3 37.9
12:45 1015 29.97 844 24.92 30.9 87.6 17 3.3 38
12:50 1015 29.97 844 24.92 30.9 87.7 18 4 39.1
12:55 1015 29.97 844 24.92 30.5 86.9 18 4.2 39.6
13:00 1015 29.97 844 24.92 30.6 87 17 2.8 37.1
13:05 1015 29.97 844 24.92 31.4 88.6 17 3.8 38.9
13:10 1015 29.97 844 24.92 31.5 88.7 15 2.6 36.7
13:15 1015 29.97 844 24.92 31.8 89.3 16 3.3 38
13:20 1015 29.97 844 24.92 31.8 89.2 15 2.6 36.7
13:25 1015 29.97 844 24.92 31.8 89.2 16 3 37.4
13:30 1014 29.94 844 24.92 30.8 87.4 17 3.5 38.3
13:35 1014 29.94 844 24.92 31 87.9 17 3.6 38.6
13:40 1014 29.94 844 24.92 31.3 88.3 17 3.7 38.6
13:45 1014 29.94 843 24.89 32 89.7 15 2.7 36.9
13:50 1014 29.94 843 24.89 32.3 90.1 15 2.9 37.3
13:55 1014 29.94 843 24.89 32.5 90.5 15 3 37.3
14:00 1014 29.94 843 24.89 32.6 90.6 15 2.8 37.1
14:05 1014 29.94 843 24.89 31.5 88.7 17 4.2 39.6
14:10 1014 29.94 843 24.89 31.1 87.9 15 1.9 35.4
14:15 1014 29.94 843 24.89 31.3 88.4 16 3.3 37.9
14:20 1014 29.94 843 24.89 31.2 88.2 17 3.5 38.2
14:25 1014 29.94 843 24.89 31.3 88.3 15 2.1 35.7
14:30 1014 29.94 843 24.89 30.9 87.5 16 2.1 35.8
14:35 1014 29.94 843 24.89 31.2 88.2 15 1.8 35.2
14:40 1014 29.94 843 24.89 31.7 89 14 1.6 34.9
14:45 1014 29.94 843 24.89 31.9 89.4 15 2.3 36.2
14:50 1013 29.91 843 24.89 32.7 90.9 14 2.1 35.8
14:55 1013 29.91 843 24.89 31.8 89.2 14 1.9 35.3
15:00 1013 29.91 842 24.86 32.1 89.8 15 2.2 36
15:05 1013 29.91 842 24.86 32.2 89.9 15 2.5 36.5
15:10 1013 29.91 842 24.86 31.8 89.3 15 1.9 35.5
15:15 1013 29.91 842 24.86 31.9 89.3 15 2.1 35.8
15:20 1013 29.91 842 24.86 32.2 89.9 14 2.1 35.8
15:25 1013 29.91 842 24.86 32.5 90.6 14 1.9 35.3
15:30 1013 29.91 842 24.86 32.9 91.2 13 1.6 34.9
15:35 1013 29.91 842 24.86 33.2 91.8 14 2.1 35.8
15:40 1013 29.91 842 24.86 32.6 90.6 14 2.1 35.7
15:45 1013 29.91 842 24.86 31.7 89.1 14 1.5 34.7
15:50 1013 29.91 842 24.86 32 89.5 13 0.9 33.6
15:55 1012 29.88 842 24.86 32.3 90.1 14 1.8 35.2
16:00 1012 29.88 841 24.83 32.5 90.4 14 2.1 35.7
16:05 1012 29.88 841 24.83 32.6 90.6 13 1.5 34.6
16:10 1012 29.88 841 24.83 32 89.5 13 0.9 33.6
16:15 1012 29.88 841 24.83 32 89.5 13 1 33.8
16:20 1012 29.88 841 24.83 32.1 89.9 13 0.8 33.5
16:25 1012 29.88 841 24.83 32.6 90.7 14 1.8 35.3
16:30 1012 29.88 841 24.83 33.2 91.7 13 1.2 34.1
16:35 1012 29.88 841 24.83 33.5 92.3 12 1.1 34
16:40 1012 29.88 841 24.83 33.5 92.4 12 1.2 34.1
16:45 1012 29.88 841 24.83 33.7 92.6 13 1.4 34.6
16:50 1012 29.88 841 24.83 33.8 92.8 12 1.4 34.5
16:55 1012 29.88 841 24.83 33.5 92.3 13 2.1 35.8
17:00 1012 29.88 841 24.83 33.8 92.8 13 1.7 35.1
17:05 1012 29.88 841 24.83 32.6 90.6 13 0.8 33.4
17:10 1012 29.88 841 24.83 31.7 89.1 13 0.3 32.5
17:15 1012 29.88 841 24.83 31.2 88.2 17 3.7 38.6
17:20 1012 29.88 842 24.86 29.6 85.3 20 4.7 40.4
17:25 1012 29.88 842 24.86 28.4 83.2 23 5.3 41.6
17:30 1012 29.88 842 24.86 28.1 82.5 23 5.1 41.3
17:35 1012 29.88 842 24.86 28 82.3 22 4.8 40.7
17:40 1012 29.88 842 24.86 28.2 82.7 23 5.3 41.5
17:45 1012 29.88 842 24.86 28.3 82.9 22 4.6 40.4
17:50 1012 29.88 841 24.83 28.4 83.1 22 5 41
17:55 1012 29.88 842 24.86 28.2 82.7 22 4.7 40.5
18:00 1012 29.88 842 24.86 27.8 82.1 22 4.3 39.7
18:05 1012 29.88 842 24.86 27.7 81.9 22 4.3 39.8
18:10 1012 29.88 842 24.86 27.7 81.9 21 3.9 39
18:15 1012 29.88 842 24.86 27.8 82 22 4.3 39.7
18:20 1012 29.88 842 24.86 27.9 82.3 20 3.5 38.3
18:25 1012 29.88 841 24.83 28.2 82.8 20 3.5 38.4
18:30 1012 29.88 841 24.83 28.3 82.9 21 4.2 39.5
18:35 1012 29.88 841 24.83 28.3 82.9 20 3.4 38.2
18:40 1012 29.88 841 24.83 28.4 83.1 20 3.5 38.4
18:45 1012 29.88 841 24.83 28.3 82.9 20 3.4 38.2
18:50 1012 29.88 841 24.83 28.2 82.7 19 3 37.5
18:55 1012 29.88 841 24.83 28.2 82.7 19 2.9 37.2
19:00 1012 29.88 841 24.83 28.2 82.7 20 3.6 38.5
19:05 1012 29.88 841 24.83 28.1 82.6 21 3.9 39
19:10 1012 29.88 841 24.83 28 82.4 21 3.7 38.7
19:15 1012 29.88 841 24.83 27.8 82.1 21 3.8 38.8
19:20 1012 29.88 841 24.83 27.7 81.8 21 3.4 38.2
19:25 1012 29.88 841 24.83 27.8 82.1 20 2.8 37
19:30 1012 29.88 841 24.83 28 82.4 20 3.4 38.1
19:35 1012 29.88 841 24.83 27.9 82.2 20 3.3 37.9
19:40 1012 29.88 841 24.83 27.7 81.8 21 3.7 38.7
19:45 1012 29.88 841 24.83 27.1 80.8 23 4.6 40.3
19:50 1012 29.88 841 24.83 26.4 79.6 24 4.4 39.9
19:55 1012 29.88 841 24.83 26 78.8 25 4.7 40.4
20:00 1012 29.88 841 24.83 25.8 78.4 25 4.4 39.8
20:05 1012 29.88 841 24.83 25.9 78.6 23 3.6 38.5
20:10 1012 29.88 841 24.83 26.2 79.2 24 4.1 39.4
20:15 1012 29.88 841 24.83 26.3 79.4 23 3.9 39
20:20 1012 29.88 841 24.83 26.4 79.6 22 3 37.4
20:25 1012 29.88 841 24.83 27 80.6 21 3.4 38.1
20:30 1012 29.88 841 24.83 27.4 81.2 21 3.4 38.2
20:35 1012 29.88 841 24.83 27.1 80.8 22 4 39.3
20:40 1012 29.88 842 24.86 26.8 80.2 22 3.8 38.8
20:45 1012 29.88 841 24.83 26.8 80.2 22 3.4 38.1
20:50 1012 29.88 841 24.83 27.4 81.2 21 3.2 37.7
20:55 1012 29.88 841 24.83 26.9 80.4 23 4.5 40.1
21:00 1012 29.88 841 24.83 26.1 78.9 24 4.3 39.8
21:05 1012 29.88 841 24.83 25.6 78.1 24 4.1 39.4
21:10 1012 29.88 841 24.83 25.6 78.1 25 4.2 39.6
21:15 1012 29.88 841 24.83 25.3 77.6 25 4.2 39.6
21:20 1012 29.88 841 24.83 25 77.1 26 4.2 39.6
21:25 1012 29.88 841 24.83 24.9 76.8 26 4.3 39.7
21:30 1012 29.88 841 24.83 24.8 76.6 26 4.3 39.7
21:35 1012 29.88 841 24.83 24.7 76.5 26 4.3 39.8
21:40 1012 29.88 841 24.83 24.7 76.4 26 4.4 39.9
21:45 1012 29.88 841 24.83 24.5 76.2 27 4.5 40.1
21:50 1012 29.88 841 24.83 24.4 75.9 27 4.6 40.3
21:55 1012 29.88 841 24.83 24.2 75.6 28 4.7 40.5
22:00 1012 29.88 841 24.83 24.1 75.4 28 4.5 40.2
22:05 1012 29.88 841 24.83 24.1 75.4 28 4.7 40.4
22:10 1012 29.88 841 24.83 24 75.2 28 4.4 40
22:15 1012 29.88 841 24.83 24 75.2 28 4.5 40
22:20 1012 29.88 842 24.86 23.9 75.1 28 4.7 40.4
22:25 1012 29.88 842 24.86 24 75.2 27 4.3 39.8
22:30 1012 29.88 842 24.86 23.9 74.9 29 5 41
22:35 1012 29.88 842 24.86 23.4 74.2 29 4.6 40.3
22:40 1012 29.88 842 24.86 23.2 73.8 29 4.4 40
22:45 1013 29.91 842 24.86 23.2 73.8 30 4.9 40.9
22:50 1013 29.91 842 24.86 23 73.4 30 4.9 40.8
22:55 1013 29.91 842 24.86 22.7 72.9 31 5 41
23:00 1013 29.91 842 24.86 22.6 72.6 31 5 41
23:05 1013 29.91 842 24.86 22.4 72.4 33 5.3 41.6
23:10 1013 29.91 842 24.86 22.3 72.1 32 5.1 41.2
23:15 1013 29.91 842 24.86 22.2 71.9 33 5.2 41.3
23:20 1013 29.91 842 24.86 22.2 71.9 32 4.8 40.6
23:25 1013 29.91 842 24.86 22.4 72.2 32 5 41
23:30 1013 29.91 842 24.86 22.2 72 33 5.3 41.5
23:35 1013 29.91 842 24.86 21.9 71.4 34 5.3 41.6
23:40 1013 29.91 842 24.86 21.4 70.5 39 7.1 44.8
23:45 1013 29.91 842 24.86 20.7 69.3 40 6.6 44
23:50 1013 29.91 842 24.86 20.4 68.8 37 5.5 41.8
23:55 1013 29.91 842 24.86 20.2 68.4 37 5.3 41.5
24:00 1013 29.91 842 24.86 20.1 68.2 38 5.7 42.2